Startpagina
METAR-TAF:

METAR-TAF

Vliegvelden :

Harbin, China

breedte: 45-45N, lengte: 126-46E, hoogte: 143 m

Actueel weer

Dit bericht is 53 minuten geleden gemaakt, om 17:00 UTC
Wind 6 kt uit het zuidzuidwesten
Temperatuur 21°C
Vochtigheid 94%
Druk 1003 hPa
Zicht 10 km of meer
Verspreide wolken op 3300 ft

METAR: ZYHB 181700Z 21003MPS 9999 SCT033 21/20 Q1003 NOSIG

Tijdstip: 01:53 (17:53 UTC)

Verwachting

Dit bericht is 3 uur en het 23 minuten geleden gemaakt, om 14:30 UTC
Verwachting geldig van 18 om 18 UTC tot 19 om 18 UTC
Wind 12 kt uit het zuidwesten met uitschieters tot 23 kt
Zicht: 6000 m
Verspreide wolken op 2600 ft
Tijdelijke
van 19 om 04 UTC tot 19 om 10 UTC
Zicht: 2000 m
Verspreide wolken op 2600 ft, Cumulonimbus.
Gebroken wolken op 2600 ft
onweer, regen

TAF: ZYHB 181430Z 1818/1918 22006G12MPS 6000 SCT026 TX31/1906Z TN22/1820Z TEMPO 1904/1910 2000 TSRA SCT026CB BKN026

Waarnemingen en weersverwachtingen van meer dan 4000 vliegvelden (METAR en TAF).

De beschikbare stations zijn de gele en rode punten op de kaart.

Ga met uw muis naar het station om de naam te zien.

Klik dan om waarnemingen en weersverwachtingen te zien.

kaart wijzigen: klik op de groene knoppen met een zwart kruis om in te zoomen, op de groene knop met een streepje om uit te zoomen of op de groene pijlen voor aangrenzende kaarten.


METAR-TAF: